createdAt,value
2018-11-28T00:00:15.995Z,102314.39
2018-11-28T00:01:17.769Z,102313.45
2018-11-28T00:02:19.540Z,102311.96
2018-11-28T00:03:21.310Z,102306.40
2018-11-28T00:04:23.074Z,102303.43
2018-11-28T00:05:24.857Z,102299.53
2018-11-28T00:06:27.096Z,102296.93
2018-11-28T00:07:28.862Z,102294.70
2018-11-28T00:08:30.631Z,102289.13
2018-11-28T00:09:32.401Z,102294.70
2018-11-28T00:10:34.215Z,102296.93
2018-11-28T00:11:36.018Z,102294.33
2018-11-28T00:12:37.784Z,102285.05
2018-11-28T00:13:39.557Z,102292.84
2018-11-28T00:14:41.324Z,102286.91
2018-11-28T00:15:43.124Z,102290.24
2018-11-28T00:16:44.884Z,102285.97
2018-11-28T00:17:46.659Z,102284.11
2018-11-28T00:18:48.430Z,102294.14
2018-11-28T00:19:50.242Z,102297.11
2018-11-28T00:20:52.037Z,102301.56
2018-11-28T00:21:53.820Z,102295.44
2018-11-28T00:22:55.599Z,102295.44
2018-11-28T00:23:57.351Z,102296.73
2018-11-28T00:24:59.208Z,102294.14
2018-11-28T00:26:01.159Z,102292.28
2018-11-28T00:27:02.961Z,102290.61
2018-11-28T00:28:05.717Z,102292.28
2018-11-28T00:29:07.771Z,102296.17
2018-11-28T00:30:09.548Z,102296.73
2018-11-28T00:31:11.349Z,102292.64
2018-11-28T00:32:13.125Z,102290.98
2018-11-28T00:33:14.897Z,102294.87
2018-11-28T00:34:16.662Z,102294.51
2018-11-28T00:35:18.569Z,102292.64
2018-11-28T00:36:20.389Z,102291.34
2018-11-28T00:37:22.159Z,102290.98
2018-11-28T00:38:23.931Z,102298.77
2018-11-28T00:39:25.697Z,102297.84
2018-11-28T00:40:27.487Z,102301.94
2018-11-28T00:41:29.276Z,102298.03
2018-11-28T00:42:31.417Z,102300.08
2018-11-28T00:43:33.197Z,102298.77
2018-11-28T00:44:34.965Z,102303.05
2018-11-28T00:45:37.092Z,102299.84
2018-11-28T00:46:38.912Z,102302.45
2018-11-28T00:47:40.688Z,102299.28
2018-11-28T00:48:42.497Z,102297.98
2018-11-28T00:49:44.256Z,102296.31
2018-11-28T00:50:46.070Z,102296.69
2018-11-28T00:51:47.918Z,102296.31
2018-11-28T00:52:50.678Z,102297.48
2018-11-28T00:53:52.462Z,102293.34
2018-11-28T00:54:54.219Z,102299.84
2018-11-28T00:55:56.429Z,102301.14
2018-11-28T00:56:58.217Z,102297.98
2018-11-28T00:57:59.989Z,102299.09
2018-11-28T00:59:01.771Z,102304.29
2018-11-28T01:00:03.534Z,102304.84
2018-11-28T01:01:05.329Z,102301.52
2018-11-28T01:02:07.123Z,102306.34
2018-11-28T01:03:08.906Z,102304.71
2018-11-28T01:04:10.677Z,102304.11
2018-11-28T01:05:12.455Z,102308.02
2018-11-28T01:06:14.231Z,102312.50
2018-11-28T01:07:16.029Z,102303.18
2018-11-28T01:08:17.795Z,102304.11
2018-11-28T01:09:19.561Z,102307.45
2018-11-28T01:10:21.565Z,102309.11
2018-11-28T01:11:23.333Z,102312.08
2018-11-28T01:12:25.133Z,102314.69
2018-11-28T01:13:26.897Z,102314.31
2018-11-28T01:14:28.666Z,102314.69
2018-11-28T01:15:30.506Z,102316.35
2018-11-28T01:16:32.278Z,102312.08
2018-11-28T01:17:34.072Z,102307.99
2018-11-28T01:18:36.215Z,102308.92
2018-11-28T01:19:38.002Z,102313.19
2018-11-28T01:20:39.768Z,102308.36
2018-11-28T01:21:41.534Z,102309.66
2018-11-28T01:22:43.354Z,102316.16
2018-11-28T01:23:45.109Z,102318.95
2018-11-28T01:24:46.880Z,102319.31
2018-11-28T01:25:48.649Z,102323.58
2018-11-28T01:26:50.400Z,102310.40
2018-11-28T01:27:52.183Z,102306.87
2018-11-28T01:28:53.950Z,102310.59
2018-11-28T01:29:55.716Z,102306.13
2018-11-28T01:30:57.482Z,102305.56
2018-11-28T01:31:59.256Z,102307.23
2018-11-28T01:33:01.036Z,102308.73
2018-11-28T01:34:02.794Z,102310.40
2018-11-28T01:35:04.568Z,102309.09
2018-11-28T01:36:06.332Z,102306.13
2018-11-28T01:37:08.102Z,102306.50
2018-11-28T01:38:09.904Z,102303.34
2018-11-28T01:39:11.682Z,102294.24
2018-11-28T01:40:13.452Z,102296.28
2018-11-28T01:41:15.228Z,102303.34
2018-11-28T01:42:17.002Z,102294.61
2018-11-28T01:43:18.791Z,102303.34
2018-11-28T01:44:20.545Z,102306.30
2018-11-28T01:45:22.831Z,102302.78
2018-11-28T01:46:24.598Z,102308.53
2018-11-28T01:47:26.354Z,102307.23
2018-11-28T01:48:28.151Z,102305.01
2018-11-28T01:49:29.908Z,102299.44
2018-11-28T01:50:31.678Z,102305.74
2018-11-28T01:51:33.456Z,102304.64
2018-11-28T01:52:35.222Z,102307.60
2018-11-28T01:54:45.282Z,102304.44
2018-11-28T01:55:47.038Z,102306.67
2018-11-28T01:56:48.808Z,102302.21
2018-11-28T01:57:51.134Z,102302.21
2018-11-28T01:58:53.510Z,102303.52
2018-11-28T01:59:55.264Z,102304.81
2018-11-28T02:00:57.023Z,102306.48
2018-11-28T02:01:58.774Z,102300.91
2018-11-28T02:03:00.531Z,102300.91
2018-11-28T02:04:02.336Z,102295.52
2018-11-28T02:05:04.102Z,102293.12
2018-11-28T02:06:05.874Z,102292.19
2018-11-28T02:07:07.636Z,102291.63
2018-11-28T02:08:09.412Z,102290.70
2018-11-28T02:09:11.170Z,102286.80
2018-11-28T02:10:12.962Z,102284.01
2018-11-28T02:11:14.730Z,102283.64
2018-11-28T02:12:16.505Z,102287.17
2018-11-28T02:13:18.264Z,102279.00
2018-11-28T02:14:20.057Z,102279.00
2018-11-28T02:15:24.566Z,102286.60
2018-11-28T02:16:26.340Z,102286.60
2018-11-28T02:17:28.098Z,102287.53
2018-11-28T02:18:29.860Z,102282.34
2018-11-28T02:19:31.651Z,102288.23
2018-11-28T02:20:33.435Z,102300.89
2018-11-28T02:21:35.197Z,102286.23
2018-11-28T02:22:36.976Z,102286.01
2018-11-28T02:23:38.754Z,102288.83
2018-11-28T02:24:40.525Z,102286.60
2018-11-28T02:25:42.311Z,102280.44
2018-11-28T02:26:44.070Z,102278.81
2018-11-28T02:27:45.836Z,102280.11
2018-11-28T02:28:47.600Z,102278.81
2018-11-28T02:29:49.393Z,102277.52
2018-11-28T02:30:51.176Z,102276.55
2018-11-28T02:31:54.336Z,102277.65
2018-11-28T02:32:56.096Z,102278.02
2018-11-28T02:33:58.918Z,102280.81
2018-11-28T02:35:01.648Z,102286.94
2018-11-28T02:36:03.427Z,102285.45
2018-11-28T02:37:05.194Z,102288.97
2018-11-28T02:38:06.967Z,102290.84
2018-11-28T02:39:08.737Z,102286.74
2018-11-28T02:40:10.531Z,102286.74
2018-11-28T02:41:12.304Z,102285.45
2018-11-28T02:42:14.074Z,102288.05
2018-11-28T02:43:15.846Z,102292.67
2018-11-28T02:44:17.615Z,102300.10
2018-11-28T02:45:19.394Z,102301.20
2018-11-28T02:46:21.160Z,102295.64
2018-11-28T02:47:22.934Z,102292.85
2018-11-28T02:48:24.679Z,102301.94
2018-11-28T02:49:26.439Z,102300.47
2018-11-28T02:50:28.231Z,102302.51
2018-11-28T02:51:29.989Z,102303.44
2018-11-28T02:52:31.768Z,102305.10
2018-11-28T02:53:33.546Z,102306.97
2018-11-28T02:54:35.325Z,102310.86
2018-11-28T02:55:37.117Z,102312.90
2018-11-28T02:56:38.886Z,102311.59
2018-11-28T02:57:40.681Z,102314.56
2018-11-28T02:58:42.461Z,102312.90
2018-11-28T02:59:44.217Z,102315.13
2018-11-28T03:00:45.998Z,102312.90
2018-11-28T03:01:47.782Z,102310.67
2018-11-28T03:02:49.557Z,102309.73
2018-11-28T03:03:51.346Z,102309.73
2018-11-28T03:04:53.117Z,102314.20
2018-11-28T03:05:54.901Z,102313.27
2018-11-28T03:06:56.671Z,102313.63
2018-11-28T03:07:58.429Z,102319.39
2018-11-28T03:09:00.199Z,102316.23
2018-11-28T03:10:01.965Z,102316.23
2018-11-28T03:11:03.769Z,102321.06
2018-11-28T03:12:05.540Z,102323.09
2018-11-28T03:13:07.317Z,102318.83
2018-11-28T03:14:09.096Z,102320.87
2018-11-28T03:15:10.862Z,102324.03
2018-11-28T03:16:18.547Z,102324.03
2018-11-28T03:17:27.748Z,102316.03
2018-11-28T03:18:29.546Z,102326.06
2018-11-28T03:19:31.307Z,102321.80
2018-11-28T03:20:33.083Z,102321.23
2018-11-28T03:21:34.877Z,102321.60
2018-11-28T03:22:36.646Z,102321.23
2018-11-28T03:23:38.447Z,102321.60
2018-11-28T03:25:48.383Z,102321.60
2018-11-28T03:26:50.149Z,102323.27
2018-11-28T03:27:51.919Z,102326.06
2018-11-28T03:28:53.704Z,102323.09
2018-11-28T03:29:55.471Z,102315.11
2018-11-28T03:30:57.256Z,102318.64
2018-11-28T03:31:59.057Z,102314.73
2018-11-28T03:33:00.833Z,102314.17
2018-11-28T03:34:02.602Z,102316.21
2018-11-28T03:35:04.385Z,102315.28
2018-11-28T03:36:06.170Z,102319.17
2018-11-28T03:37:10.995Z,102313.61
2018-11-28T03:38:12.769Z,102309.72
2018-11-28T03:39:14.547Z,102308.05
2018-11-28T03:40:16.323Z,102307.48
2018-11-28T03:41:18.123Z,102306.19
2018-11-28T03:42:19.899Z,102303.59
2018-11-28T03:43:21.691Z,102305.82
2018-11-28T03:44:23.537Z,102303.03
2018-11-28T03:45:26.338Z,102301.73
2018-11-28T03:46:28.103Z,102309.52
2018-11-28T03:47:29.907Z,102303.39
2018-11-28T03:48:31.673Z,102310.26
2018-11-28T03:49:33.435Z,102304.33
2018-11-28T03:50:35.626Z,102302.09
2018-11-28T03:51:37.394Z,102303.20
2018-11-28T03:52:39.190Z,102301.16
2018-11-28T03:53:40.959Z,102298.37
2018-11-28T03:54:42.721Z,102293.18
2018-11-28T03:55:44.489Z,102284.09
2018-11-28T03:56:46.266Z,102287.98
2018-11-28T03:57:48.060Z,102283.72
2018-11-28T03:58:49.831Z,102279.22
2018-11-28T03:59:51.608Z,102288.55
2018-11-28T04:00:53.380Z,102283.12
2018-11-28T04:01:55.147Z,102282.55
2018-11-28T04:02:56.970Z,102282.19
2018-11-28T04:04:00.070Z,102287.98
2018-11-28T04:05:01.839Z,102288.91
2018-11-28T04:06:03.602Z,102285.58
2018-11-28T04:07:05.362Z,102282.78
2018-11-28T04:08:07.163Z,102281.82
2018-11-28T04:09:08.923Z,102281.82
2018-11-28T04:10:10.695Z,102284.65
2018-11-28T04:11:12.469Z,102286.69
2018-11-28T04:12:14.230Z,102294.48
2018-11-28T04:13:16.015Z,102294.30
2018-11-28T04:14:17.782Z,102294.48
2018-11-28T04:15:19.582Z,102290.34
2018-11-28T04:16:21.357Z,102292.38
2018-11-28T04:17:23.116Z,102296.84
2018-11-28T04:18:24.903Z,102284.78
2018-11-28T04:19:26.664Z,102283.85
2018-11-28T04:20:28.440Z,102281.26
2018-11-28T04:21:30.216Z,102281.63
2018-11-28T04:22:32.005Z,102284.59
2018-11-28T04:23:33.792Z,102282.00
2018-11-28T04:24:35.566Z,102286.26
2018-11-28T04:25:37.328Z,102282.36
2018-11-28T04:26:39.094Z,102279.77
2018-11-28T04:27:40.866Z,102275.30
2018-11-28T04:28:42.656Z,102272.34
2018-11-28T04:29:44.429Z,102282.73
2018-11-28T04:30:46.202Z,102276.97
2018-11-28T04:31:47.975Z,102274.01
2018-11-28T04:32:50.128Z,102282.36
2018-11-28T04:33:53.308Z,102282.36
2018-11-28T04:34:55.090Z,102276.61
2018-11-28T04:35:56.874Z,102285.70
2018-11-28T04:36:58.662Z,102268.45
2018-11-28T04:38:00.425Z,102267.14
2018-11-28T04:39:02.214Z,102274.18
2018-11-28T04:40:03.964Z,102261.76
2018-11-28T04:41:05.745Z,102263.98
2018-11-28T04:42:07.509Z,102266.58
2018-11-28T04:43:09.263Z,102265.66
2018-11-28T04:44:11.062Z,102259.89
2018-11-28T04:45:12.833Z,102259.53
2018-11-28T04:46:14.607Z,102262.49
2018-11-28T04:47:16.389Z,102264.72
2018-11-28T04:48:18.149Z,102261.76
2018-11-28T04:49:19.956Z,102261.19
2018-11-28T04:50:21.727Z,102264.72
2018-11-28T04:51:23.690Z,102262.86
2018-11-28T04:52:25.535Z,102261.93
2018-11-28T04:53:27.303Z,102261.93
2018-11-28T04:54:29.089Z,102260.27
2018-11-28T04:55:30.870Z,102260.06
2018-11-28T04:56:32.655Z,102261.37
2018-11-28T04:57:34.410Z,102255.80
2018-11-28T04:58:36.166Z,102255.24
2018-11-28T04:59:37.961Z,102253.95
2018-11-28T05:00:39.737Z,102255.24
2018-11-28T05:01:41.506Z,102257.84
2018-11-28T05:02:43.291Z,102258.77
2018-11-28T05:03:45.070Z,102260.06
2018-11-28T05:04:48.304Z,102260.06
2018-11-28T05:05:50.083Z,102263.97
2018-11-28T05:06:51.852Z,102270.45
2018-11-28T05:07:53.982Z,102263.03
2018-11-28T05:08:56.901Z,102261.37
2018-11-28T05:09:58.733Z,102267.30
2018-11-28T05:11:00.497Z,102275.66
2018-11-28T05:12:02.264Z,102269.89
2018-11-28T05:13:04.043Z,102268.59
2018-11-28T05:14:05.806Z,102266.73
2018-11-28T05:15:07.607Z,102267.49
2018-11-28T05:16:09.380Z,102268.59
2018-11-28T05:17:12.142Z,102270.63
2018-11-28T05:18:13.902Z,102262.84
2018-11-28T05:19:15.669Z,102263.58
2018-11-28T05:20:17.445Z,102269.70
2018-11-28T05:21:19.212Z,102254.85
2018-11-28T05:22:22.265Z,102259.68
2018-11-28T05:23:24.024Z,102257.45
2018-11-28T05:24:25.795Z,102258.38
2018-11-28T05:25:29.115Z,102262.28
2018-11-28T05:26:30.967Z,102260.41
2018-11-28T05:27:32.734Z,102266.54
2018-11-28T05:28:34.503Z,102266.91
2018-11-28T05:29:36.273Z,102273.03
2018-11-28T05:30:38.062Z,102266.91
2018-11-28T05:31:39.838Z,102267.84
2018-11-28T05:32:41.605Z,102266.17
2018-11-28T05:33:44.805Z,102270.07
2018-11-28T05:34:46.555Z,102268.58
2018-11-28T05:35:48.357Z,102276.00
2018-11-28T05:36:50.144Z,102267.28
2018-11-28T05:37:53.114Z,102271.88
2018-11-28T05:38:54.869Z,102277.30
2018-11-28T05:39:56.651Z,102275.07
2018-11-28T05:40:58.445Z,102283.42
2018-11-28T05:42:00.224Z,102280.96
2018-11-28T05:43:01.998Z,102279.66
2018-11-28T05:44:03.799Z,102280.30
2018-11-28T05:45:05.573Z,102276.21
2018-11-28T05:46:07.751Z,102277.63
2018-11-28T05:47:09.537Z,102272.45
2018-11-28T05:48:11.312Z,102271.48
2018-11-28T05:49:15.232Z,102271.44
2018-11-28T05:50:14.907Z,102270.94
2018-11-28T05:51:16.722Z,102269.09
2018-11-28T05:52:18.535Z,102269.09
2018-11-28T05:53:20.421Z,102276.58
2018-11-28T05:54:22.210Z,102276.02
2018-11-28T05:55:23.994Z,102268.61
2018-11-28T05:56:25.785Z,102279.42
2018-11-28T05:57:27.557Z,102276.19
2018-11-28T05:58:29.342Z,102270.99
2018-11-28T05:59:31.615Z,102276.23
2018-11-28T06:00:37.123Z,102269.92
2018-11-28T06:01:38.914Z,102273.97
2018-11-28T06:02:40.681Z,102281.66
2018-11-28T06:03:42.471Z,102276.77
2018-11-28T06:04:44.253Z,102274.86
2018-11-28T06:05:46.043Z,102272.41
2018-11-28T06:06:49.247Z,102273.45
2018-11-28T06:07:51.028Z,102267.23
2018-11-28T06:08:52.813Z,102274.12
2018-11-28T06:09:54.603Z,102269.82
2018-11-28T06:10:56.372Z,102277.37
2018-11-28T06:11:58.195Z,102267.44
2018-11-28T06:12:59.958Z,102266.34
2018-11-28T06:14:01.728Z,102273.63
2018-11-28T06:15:03.512Z,102270.31
2018-11-28T06:16:05.294Z,102267.14
2018-11-28T06:17:07.102Z,102269.53
2018-11-28T06:18:08.889Z,102271.13
2018-11-28T06:19:10.672Z,102273.11
2018-11-28T06:20:12.441Z,102273.27
2018-11-28T06:21:14.240Z,102276.55
2018-11-28T06:22:16.192Z,102273.19
2018-11-28T06:23:17.974Z,102280.23
2018-11-28T06:24:19.746Z,102282.83
2018-11-28T06:25:21.512Z,102276.88
2018-11-28T06:26:23.289Z,102275.58
2018-11-28T06:27:25.579Z,102278.55
2018-11-28T06:28:27.346Z,102274.08
2018-11-28T06:29:29.122Z,102275.19
2018-11-28T06:30:30.898Z,102275.55
2018-11-28T06:31:33.824Z,102281.82
2018-11-28T06:32:35.618Z,102283.48
2018-11-28T06:33:37.402Z,102283.12
2018-11-28T06:34:39.169Z,102284.22
2018-11-28T06:35:40.966Z,102284.78
2018-11-28T06:36:42.748Z,102282.92
2018-11-28T06:37:44.530Z,102284.22
2018-11-28T06:38:46.285Z,102289.22
2018-11-28T06:39:48.054Z,102287.19
2018-11-28T06:40:49.830Z,102290.52
2018-11-28T06:41:51.621Z,102282.17
2018-11-28T06:42:53.425Z,102288.47
2018-11-28T06:43:55.628Z,102283.27
2018-11-28T06:44:57.400Z,102287.17
2018-11-28T06:45:59.177Z,102289.40
2018-11-28T06:47:00.950Z,102294.96
2018-11-28T06:48:02.774Z,102295.52
2018-11-28T06:49:04.545Z,102299.05
2018-11-28T06:50:06.315Z,102297.92
2018-11-28T06:51:08.110Z,102294.96
2018-11-28T06:52:09.878Z,102299.22
2018-11-28T06:53:11.664Z,102293.84
2018-11-28T06:54:13.436Z,102296.99
2018-11-28T06:55:15.550Z,102294.39
2018-11-28T06:56:17.418Z,102298.66
2018-11-28T06:57:19.168Z,102300.89
2018-11-28T06:58:22.222Z,102293.84
2018-11-28T06:59:24.012Z,102294.94
2018-11-28T07:00:25.796Z,102299.39
2018-11-28T07:01:27.555Z,102302.36
2018-11-28T07:02:29.321Z,102307.55
2018-11-28T07:03:31.126Z,102307.55
2018-11-28T07:04:32.900Z,102306.62
2018-11-28T07:05:34.670Z,102314.41
2018-11-28T07:06:36.438Z,102308.66
2018-11-28T07:07:38.222Z,102306.43
2018-11-28T07:08:40.000Z,102308.66
2018-11-28T07:09:41.766Z,102311.63
2018-11-28T07:10:43.551Z,102312.92
2018-11-28T07:11:45.317Z,102308.66
2018-11-28T07:12:47.553Z,102307.73
2018-11-28T07:13:49.359Z,102303.27
2018-11-28T07:14:51.130Z,102303.64
2018-11-28T07:15:52.898Z,102309.03
2018-11-28T07:16:54.674Z,102307.53
2018-11-28T07:17:56.455Z,102306.56
2018-11-28T07:18:58.278Z,102304.94
2018-11-28T07:20:00.072Z,102304.94
2018-11-28T07:21:01.837Z,102309.77
2018-11-28T07:22:03.638Z,102308.83
2018-11-28T07:23:05.410Z,102307.86
2018-11-28T07:24:07.194Z,102305.50
2018-11-28T07:25:10.800Z,102310.12
2018-11-28T07:26:12.590Z,102311.76
2018-11-28T07:27:14.371Z,102308.23
2018-11-28T07:28:17.406Z,102309.14
2018-11-28T07:29:19.216Z,102306.73
2018-11-28T07:30:20.988Z,102300.98
2018-11-28T07:31:22.747Z,102300.98
2018-11-28T07:32:24.516Z,102302.28
2018-11-28T07:33:26.293Z,102304.87
2018-11-28T07:34:28.080Z,102304.14
2018-11-28T07:35:29.836Z,102304.14
2018-11-28T07:36:31.611Z,102300.98
2018-11-28T07:37:33.395Z,102306.17
2018-11-28T07:38:35.166Z,102304.14
2018-11-28T07:39:37.045Z,102303.58
2018-11-28T07:40:38.790Z,102300.05
2018-11-28T07:41:40.567Z,102310.07
2018-11-28T07:42:42.337Z,102305.25
2018-11-28T07:43:44.099Z,102307.47
2018-11-28T07:44:45.920Z,102309.50
2018-11-28T07:45:47.701Z,102315.83
2018-11-28T07:46:49.478Z,102305.61
2018-11-28T07:47:51.286Z,102312.67
2018-11-28T07:48:53.186Z,102309.50
2018-11-28T07:49:54.969Z,102313.03
2018-11-28T07:50:56.739Z,102310.44
2018-11-28T07:51:58.516Z,102305.61
2018-11-28T07:53:00.283Z,102305.41
2018-11-28T07:54:02.060Z,102299.86
2018-11-28T07:55:03.845Z,102294.66
2018-11-28T07:56:05.860Z,102305.98
2018-11-28T07:57:07.708Z,102309.88
2018-11-28T07:58:09.476Z,102303.38
2018-11-28T07:59:11.246Z,102302.45
2018-11-28T08:00:13.075Z,102297.99
2018-11-28T08:01:14.908Z,102303.75
2018-11-28T08:02:16.676Z,102301.16
2018-11-28T08:03:18.445Z,102294.09
2018-11-28T08:04:20.407Z,102304.48
2018-11-28T08:05:22.056Z,102305.78
2018-11-28T08:06:23.826Z,102302.62
2018-11-28T08:07:25.595Z,102299.66
2018-11-28T08:08:27.359Z,102299.09
2018-11-28T08:09:29.137Z,102301.32
2018-11-28T08:10:30.964Z,102297.42
2018-11-28T08:11:33.955Z,102299.66
2018-11-28T08:12:35.733Z,102297.80
2018-11-28T08:13:37.499Z,102302.25
2018-11-28T08:14:39.267Z,102293.16
2018-11-28T08:15:41.059Z,102308.75
2018-11-28T08:16:42.898Z,102303.55
2018-11-28T08:17:44.667Z,102307.81
2018-11-28T08:18:47.851Z,102310.98
2018-11-28T08:19:49.637Z,102313.58
2018-11-28T08:20:52.447Z,102319.13
2018-11-28T08:21:54.224Z,102321.36
2018-11-28T08:22:56.001Z,102311.71
2018-11-28T08:23:59.023Z,102322.30
2018-11-28T08:25:01.207Z,102329.52
2018-11-28T08:26:03.012Z,102324.89
2018-11-28T08:27:04.782Z,102321.17
2018-11-28T08:28:06.570Z,102323.59
2018-11-28T08:29:08.339Z,102326.19
2018-11-28T08:30:10.108Z,102320.06
2018-11-28T08:31:11.900Z,102324.89
2018-11-28T08:32:13.665Z,102318.40
2018-11-28T08:33:15.432Z,102327.48
2018-11-28T08:34:17.220Z,102322.66
2018-11-28T08:35:18.994Z,102323.79
2018-11-28T08:36:20.805Z,102329.35
2018-11-28T08:37:22.583Z,102327.69
2018-11-28T08:38:24.354Z,102330.28
2018-11-28T08:39:26.113Z,102323.79
2018-11-28T08:41:36.152Z,102324.35
2018-11-28T08:42:37.915Z,102325.09
2018-11-28T08:43:39.670Z,102325.09
2018-11-28T08:44:41.442Z,102323.79
2018-11-28T08:45:43.286Z,102316.00
2018-11-28T08:46:45.050Z,102319.89
2018-11-28T08:47:46.832Z,102323.62
2018-11-28T08:48:51.815Z,102325.66
2018-11-28T08:49:54.604Z,102320.83
2018-11-28T08:50:56.378Z,102319.53
2018-11-28T08:51:59.546Z,102324.18
2018-11-28T08:53:01.532Z,102319.36
2018-11-28T08:54:03.815Z,102319.92
2018-11-28T08:55:05.586Z,102319.22
2018-11-28T08:56:07.800Z,102323.31
2018-11-28T08:57:09.602Z,102318.12
2018-11-28T08:58:12.491Z,102319.05
2018-11-28T08:59:14.647Z,102317.95
2018-11-28T09:00:16.418Z,102317.38
2018-11-28T09:01:18.190Z,102309.59
2018-11-28T09:02:19.989Z,102309.78
2018-11-28T09:03:21.761Z,102316.11
2018-11-28T09:04:23.538Z,102311.64
2018-11-28T09:05:25.304Z,102315.17
2018-11-28T09:06:27.081Z,102314.44
2018-11-28T09:07:28.888Z,102311.48
2018-11-28T09:08:30.659Z,102309.44
2018-11-28T09:09:32.464Z,102309.81
2018-11-28T09:10:34.248Z,102313.70
2018-11-28T09:11:36.035Z,102308.14
2018-11-28T09:12:37.817Z,102314.83
2018-11-28T09:13:39.617Z,102317.99
2018-11-28T09:14:41.412Z,102315.77
2018-11-28T09:15:43.207Z,102314.29
2018-11-28T09:16:44.973Z,102311.70
2018-11-28T09:17:46.785Z,102311.70
2018-11-28T09:18:48.562Z,102306.50
2018-11-28T09:19:50.343Z,102312.86
2018-11-28T09:20:52.107Z,102311.56
2018-11-28T09:21:53.875Z,102309.70
2018-11-28T09:22:55.648Z,102313.05
2018-11-28T09:23:57.430Z,102316.75
2018-11-28T09:24:59.211Z,102300.23
2018-11-28T09:26:01.082Z,102295.04
2018-11-28T09:27:03.738Z,102292.08
2018-11-28T09:28:04.739Z,102289.11
2018-11-28T09:29:06.496Z,102276.12
2018-11-28T09:30:08.263Z,102275.92
2018-11-28T09:31:10.029Z,102274.63
2018-11-28T09:32:11.817Z,102272.22
2018-11-28T09:33:13.628Z,102271.66
2018-11-28T09:34:15.395Z,102276.63
2018-11-28T09:35:17.163Z,102274.99
2018-11-28T09:36:18.924Z,102272.39
2018-11-28T09:37:20.694Z,102275.55
2018-11-28T09:38:22.491Z,102274.45
2018-11-28T09:39:24.259Z,102265.16
2018-11-28T09:40:26.033Z,102263.86
2018-11-28T09:41:27.812Z,102264.06
2018-11-28T09:42:29.581Z,102263.13
2018-11-28T09:43:31.397Z,102264.80
2018-11-28T09:44:33.185Z,102264.98
2018-11-28T09:45:34.964Z,102267.95
2018-11-28T09:46:36.730Z,102258.86
2018-11-28T09:47:38.493Z,102258.86
2018-11-28T09:48:40.277Z,102267.59
2018-11-28T09:49:42.050Z,102263.69
2018-11-28T09:50:43.842Z,102270.19
2018-11-28T09:51:45.588Z,102268.16
2018-11-28T09:52:47.357Z,102269.81
2018-11-28T09:53:49.140Z,102274.28
2018-11-28T09:54:50.905Z,102269.45
2018-11-28T09:55:52.730Z,102279.47
2018-11-28T09:56:54.499Z,102266.85
2018-11-28T09:57:56.270Z,102269.45
2018-11-28T09:58:58.056Z,102279.84
2018-11-28T10:00:01.290Z,102276.51
2018-11-28T10:01:03.087Z,102271.48
2018-11-28T10:02:05.070Z,102270.37
2018-11-28T10:03:06.843Z,102273.72
2018-11-28T10:04:08.661Z,102273.54
2018-11-28T10:05:10.436Z,102265.75
2018-11-28T10:06:12.211Z,102270.37
2018-11-28T10:07:15.505Z,102267.78
2018-11-28T10:08:17.265Z,102270.94
2018-11-28T10:09:19.067Z,102271.68
2018-11-28T10:10:20.830Z,102262.22
2018-11-28T10:11:22.615Z,102264.81
2018-11-28T10:12:24.390Z,102253.86
2018-11-28T10:13:26.213Z,102263.52
2018-11-28T10:14:28.015Z,102258.69
2018-11-28T10:15:35.240Z,102260.55
2018-11-28T10:16:31.582Z,102257.02
2018-11-28T10:17:33.360Z,102259.98
2018-11-28T10:18:35.886Z,102256.09
2018-11-28T10:19:36.961Z,102257.02
2018-11-28T10:20:39.208Z,102252.94
2018-11-28T10:21:40.986Z,102252.56
2018-11-28T10:22:42.746Z,102253.86
2018-11-28T10:23:45.803Z,102257.02
2018-11-28T10:24:47.607Z,102253.86
2018-11-28T10:25:49.376Z,102254.23
2018-11-28T10:26:51.162Z,102247.93
2018-11-28T10:27:53.995Z,102253.49
2018-11-28T10:28:55.775Z,102251.27
2018-11-28T10:29:57.581Z,102243.47
2018-11-28T10:30:59.354Z,102242.54
2018-11-28T10:32:01.123Z,102237.72
2018-11-28T10:33:02.898Z,102236.05
2018-11-28T10:34:04.657Z,102230.48
2018-11-28T10:35:06.509Z,102230.48
2018-11-28T10:36:08.257Z,102229.74
2018-11-28T10:37:10.025Z,102221.02
2018-11-28T10:38:11.798Z,102217.86
2018-11-28T10:39:13.587Z,102218.80
2018-11-28T10:40:15.421Z,102220.28
2018-11-28T10:41:17.202Z,102210.63
2018-11-28T10:42:18.972Z,102221.21
2018-11-28T10:43:20.759Z,102218.62
2018-11-28T10:44:23.030Z,102215.65
2018-11-28T10:45:25.238Z,102211.75
2018-11-28T10:46:27.663Z,102211.56
2018-11-28T10:47:28.948Z,102207.66
2018-11-28T10:48:30.773Z,102210.63
2018-11-28T10:49:32.535Z,102199.50
2018-11-28T10:50:35.977Z,102205.99
2018-11-28T10:51:37.851Z,102198.20
2018-11-28T10:52:39.612Z,102198.57
2018-11-28T10:53:41.389Z,102203.40
2018-11-28T10:54:43.150Z,102205.25
2018-11-28T10:55:44.960Z,102199.87
2018-11-28T10:56:46.727Z,102197.83
2018-11-28T10:57:48.531Z,102198.20
2018-11-28T10:58:50.301Z,102181.69
2018-11-28T10:59:52.087Z,102186.51
2018-11-28T11:00:59.259Z,102184.28
2018-11-28T11:03:09.225Z,102181.69
2018-11-28T11:04:15.320Z,102175.56
2018-11-28T11:05:22.596Z,102173.34
2018-11-28T11:06:29.781Z,102176.31
2018-11-28T11:07:37.119Z,102169.45
2018-11-28T11:08:44.326Z,102176.68
2018-11-28T11:09:51.579Z,102179.47
2018-11-28T11:11:59.747Z,102167.41
2018-11-28T11:13:06.983Z,102169.45
2018-11-28T11:14:14.154Z,102168.52
2018-11-28T11:15:17.409Z,102170.55
2018-11-28T11:16:24.613Z,102174.45
2018-11-28T11:17:26.426Z,102166.29
2018-11-28T11:18:28.358Z,102171.48
2018-11-28T11:19:30.108Z,102176.31
2018-11-28T11:20:31.872Z,102174.64
2018-11-28T11:21:33.639Z,102166.29
2018-11-28T11:22:35.433Z,102179.28
2018-11-28T11:23:37.197Z,102174.64
2018-11-28T11:24:39.021Z,102167.78
2018-11-28T11:25:40.779Z,102164.98
2018-11-28T11:26:42.546Z,102162.76
2018-11-28T11:27:44.357Z,102160.16
2018-11-28T11:28:46.139Z,102158.86
2018-11-28T11:29:47.904Z,102150.70
2018-11-28T11:30:49.664Z,102158.86
2018-11-28T11:31:51.427Z,102154.03
2018-11-28T11:32:54.472Z,102148.47
2018-11-28T11:33:56.240Z,102155.89
2018-11-28T11:34:57.999Z,102149.58
2018-11-28T11:35:59.751Z,102148.84
2018-11-28T11:37:01.521Z,102147.17
2018-11-28T11:38:03.332Z,102149.41
2018-11-28T11:39:05.192Z,102139.19
2018-11-28T11:40:07.047Z,102142.72
2018-11-28T11:41:08.818Z,102139.56
2018-11-28T11:42:10.596Z,102135.85
2018-11-28T11:43:12.383Z,102146.24
2018-11-28T11:44:14.161Z,102132.69
2018-11-28T11:45:15.953Z,102137.52
2018-11-28T11:46:18.017Z,102136.78
2018-11-28T11:47:19.776Z,102138.08
2018-11-28T11:48:21.683Z,102130.09
2018-11-28T11:49:23.447Z,102132.69
2018-11-28T11:50:25.239Z,102130.66
2018-11-28T11:51:27.020Z,102131.03
2018-11-28T11:52:28.807Z,102127.87